Latest Weather Observations for Cape Grim

IDT60801

Issued at 7:05 pm EST Wednesday 30 July 2014 (issued every 30 minutes, with the page automatically refreshed every 10 minutes)

About weather observations | Map of weather stations | Latest weather observations for TAS | Other Formats
Station Details ID: 091331 Name: CAPE GRIM Lat: -40.68 Lon: 144.69 Height: 86.0 m
Data from the previous 72 hours. | See also: Recent months for locations in Tasmania
Date/Time
EST
Temp
°C
App
Temp
°C
Dew
Point
Rel
Hum
%
Delta-T
°C
Wind Press
QNH
hPa
Press
MSL
hPa
Rain
since 9 am
mm
Dir
 
Spd
km/h
Gust
km/h
Spd
kts
Gust
kts
30/07:04pm 13.9 - - - - WNW 70 89 38 48 999.5 - 2.0
30/07:00pm 14.1 - - - - WNW 72 89 39 48 999.6 999.7 2.0
30/06:30pm 13.5 - - - - WNW 67 85 36 46 999.7 - 2.0
30/06:00pm 12.5 - - - - WNW 69 106 37 57 999.9 1000.0 1.8
30/05:57pm 12.5 - - - - WNW 63 96 34 52 999.9 - 1.6
30/05:30pm 13.9 - - - - WNW 57 78 31 42 1000.2 - 0.8
30/05:03pm 14.1 - - - - WNW 59 78 32 42 1000.3 - 0.8
30/05:00pm 14.0 - - - - WNW 61 78 33 42 1000.2 1000.3 0.8
30/04:39pm 14.0 - - - - WNW 65 83 35 45 1000.2 - 0.8
30/04:30pm 14.0 - - - - WNW 63 80 34 43 1000.4 - 0.8
30/04:00pm 14.1 - - - - W 69 91 37 49 1000.4 1000.5 0.8
30/03:42pm 13.9 - - - - W 61 80 33 43 1000.4 - 0.8
30/03:30pm 13.8 - - - - W 57 74 31 40 1000.6 - 0.8
30/03:04pm 14.2 - - - - WNW 59 83 32 45 1000.7 - 0.8
30/03:00pm 14.2 - - - - WNW 57 72 31 39 1000.7 1000.8 0.8
30/02:31pm 14.3 - - - - WNW 63 82 34 44 1001.0 - 0.8
30/02:30pm 14.4 - - - - WNW 65 82 35 44 1000.9 - 0.8
30/02:00pm 14.4 - - - - W 56 76 30 41 1001.0 1001.1 0.8
30/01:43pm 14.6 - - - - WNW 61 80 33 43 1001.1 - 0.8
30/01:30pm 14.2 - - - - WNW 63 78 34 42 1001.3 - 0.8
30/01:07pm 13.9 - - - - WNW 63 82 34 44 1001.5 - 0.8
30/01:00pm 14.0 - - - - WNW 63 80 34 43 1001.5 1001.6 0.8
30/12:49pm 13.4 - - - - WNW 63 82 34 44 1001.6 - 0.8
30/12:30pm 13.2 - - - - WNW 61 76 33 41 1001.9 - 0.4
30/12:00pm 13.9 - - - - WNW 61 80 33 43 1002.5 1002.6 0.4
30/11:37am 13.6 - - - - WNW 54 76 29 41 1002.9 - 0.4
30/11:30am 13.8 - - - - WNW 57 69 31 37 1003.1 - 0.4
30/11:00am 13.3 - - - - WNW 63 82 34 44 1003.4 1003.5 0.4
30/10:30am 13.5 - - - - WNW 57 78 31 42 1003.6 - 0.0
30/10:00am 13.4 - - - - WNW 59 78 32 42 1003.6 1003.7 0.0
30/09:45am 13.5 - - - - WNW 56 74 30 40 1003.5 - 0.0
30/09:30am 13.5 - - - - WNW 61 76 33 41 1003.4 - 0.0
30/09:00am 13.2 - - - - WNW 57 78 31 42 1003.3 1003.4 1.2
30/08:45am 13.2 - - - - WNW 61 80 33 43 1003.2 - 1.2
30/08:30am 13.2 - - - - WNW 61 74 33 40 1003.3 - 1.2
30/08:00am 12.8 - - - - W 56 80 30 43 1003.1 1003.2 1.2
30/07:30am 12.6 - - - - WNW 54 72 29 39 1003.0 - 1.2
30/07:04am 12.3 - - - - WNW 52 72 28 39 1003.3 - 1.2
30/07:00am 12.4 - - - - WNW 54 67 29 36 1003.3 1003.4 1.2
30/06:40am 12.3 - - - - WNW 50 69 27 37 1003.1 - 1.2
30/06:30am 12.4 - - - - WNW 56 69 30 37 1003.0 - 1.2
30/06:00am 12.8 - - - - W 56 69 30 37 1002.7 1002.8 1.2
30/05:37am 13.0 - - - - W 54 72 29 39 1002.9 - 1.2
30/05:30am 12.8 - - - - W 56 70 30 38 1002.9 - 1.2
30/05:05am 12.6 - - - - W 54 72 29 39 1002.7 - 1.2
30/05:00am 12.8 - - - - W 54 69 29 37 1002.8 1002.9 1.2
30/04:30am 12.6 - - - - W 52 70 28 38 1002.7 - 1.2
30/04:00am 12.3 - - - - W 50 74 27 40 1002.9 1003.0 1.2
30/03:30am 12.3 - - - - W 54 80 29 43 1003.0 - 1.2
30/03:00am 12.4 - - - - W 54 83 29 45 1002.9 1003.0 1.2
30/02:30am 12.5 - - - - W 50 76 27 41 1002.9 - 1.2
30/02:00am 12.6 - - - - W 52 74 28 40 1002.4 1002.5 1.2
30/01:30am 12.7 - - - - W 54 80 29 43 1002.1 - 1.2
30/01:00am 12.6 - - - - W 54 80 29 43 1001.7 1001.8 1.2
30/12:30am 12.7 - - - - W 57 82 31 44 1001.2 - 1.2
30/12:00am 12.9 - - - - W 59 85 32 46 1000.8 1000.9 1.2
 
Date/Time
EST
Temp
°C
App
Temp
°C
Dew
Point
Rel
Hum
%
Delta-T
°C
Wind Press
QNH
hPa
Press
MSL
hPa
Rain
since 9 am
mm
Dir
 
Spd
km/h
Gust
km/h
Spd
kts
Gust
kts
29/11:30pm 13.1 - - - - W 61 93 33 50 1000.4 - 1.2
29/11:00pm 13.3 - - - - W 61 83 33 45 1000.4 1000.5 1.2
29/10:30pm 13.3 - - - - W 57 80 31 43 999.8 - 1.2
29/10:00pm 13.2 - - - - W 61 83 33 45 999.7 999.8 1.2
29/09:41pm 13.3 - - - - W 72 95 39 51 999.1 - 1.2
29/09:38pm 13.3 - - - - W 96 117 52 63 999.0 - 1.2
29/09:30pm 13.4 - - - - W 72 106 39 57 999.3 - 1.2
29/09:16pm 13.3 - - - - W 78 96 42 52 999.2 - 1.2
29/09:13pm 13.2 - - - - W 83 96 45 52 999.1 - 1.2
29/09:00pm 13.4 - - - - W 63 93 34 50 999.1 999.2 1.2
29/08:30pm 13.3 - - - - W 67 93 36 50 998.8 - 1.2
29/08:00pm 13.1 - - - - W 70 93 38 50 998.3 998.4 1.2
29/07:30pm 13.5 - - - - W 83 111 45 60 997.6 - 1.2
29/07:19pm 13.7 - - - - W 87 106 47 57 997.5 - 1.2
29/07:00pm 13.6 - - - - W 67 98 36 53 997.2 997.2 1.2
29/06:54pm 13.5 - - - - W 63 82 34 44 997.4 - 1.2
29/06:30pm 13.7 - - - - W 83 106 45 57 996.7 - 1.2
29/06:00pm 13.7 - - - - W 76 107 41 58 996.1 996.1 1.2
29/05:30pm 13.9 - - - - W 80 102 43 55 995.8 - 1.2
29/05:00pm 13.8 - - - - W 80 106 43 57 995.3 995.3 1.2
29/04:30pm 13.7 - - - - WNW 85 107 46 58 994.8 - 1.2
29/04:10pm 13.8 - - - - WNW 76 113 41 61 994.5 - 1.2
29/04:01pm 13.4 - - - - WNW 74 93 40 50 994.4 - 1.2
29/04:00pm 13.4 - - - - WNW 76 93 41 50 994.4 994.4 1.2
29/03:30pm 14.0 - - - - WNW 69 93 37 50 995.0 - 1.2
29/03:24pm 14.0 - - - - WNW 67 85 36 46 995.1 - 1.2
29/03:22pm 14.0 - - - - WNW 63 76 34 41 995.2 - 1.2
29/03:00pm 14.1 - - - - W 82 102 44 55 994.8 994.8 1.2
29/02:30pm 14.2 - - - - WNW 74 98 40 53 994.5 - 1.2
29/02:00pm 14.0 - - - - WNW 69 91 37 49 994.9 994.9 1.2
29/01:42pm 13.4 - - - - WNW 63 91 34 49 995.3 - 1.2
29/01:30pm 13.2 - - - - WNW 65 82 35 44 995.4 - 1.2
29/01:00pm 12.5 - - - - W 63 82 34 44 995.9 995.9 1.2
29/12:31pm 13.1 - - - - W 65 83 35 45 996.4 - 1.2
29/12:30pm 13.0 - - - - W 67 83 36 45 996.4 - 1.2
29/12:00pm 13.7 - - - - W 70 91 38 49 996.7 996.7 1.0
29/11:30am 13.9 - - - - W 63 83 34 45 997.1 - 1.0
29/11:00am 13.8 - - - - WNW 70 91 38 49 996.9 996.9 1.0
29/10:41am 13.8 - - - - WNW 69 87 37 47 996.9 - 1.0
29/10:30am 13.8 - - - - WNW 70 87 38 47 996.9 - 1.0
29/10:00am 13.4 - - - - WNW 67 87 36 47 997.0 997.0 1.0
29/09:30am 13.5 - - - - WNW 59 83 32 45 997.3 - 1.0
29/09:00am 13.8 - - - - WNW 67 93 36 50 997.4 997.4 13.6
29/08:30am 13.6 - - - - WNW 69 91 37 49 997.5 - 13.6
29/08:00am 13.9 - - - - WNW 74 95 40 51 997.5 997.5 13.6
29/07:30am 13.7 - - - - WNW 72 95 39 51 997.2 - 13.6
29/07:00am 13.4 - - - - NW 72 98 39 53 997.1 997.1 13.2
29/06:30am 13.6 - - - - NW 74 100 40 54 996.9 - 12.8
29/06:20am 13.2 - - - - NW 69 91 37 49 996.8 - 12.6
29/06:11am 13.1 - - - - WNW 50 69 27 37 997.2 - 12.2
29/06:05am 13.3 - - - - NW 72 91 39 49 997.2 - 11.8
29/06:00am 13.5 - - - - NW 74 89 40 48 997.2 997.2 11.8
29/05:30am 12.9 - - - - NW 63 91 34 49 997.3 - 11.6
29/05:23am 12.9 - - - - NNW 63 83 34 45 997.5 - 10.6
29/05:15am 12.8 - - - - NW 54 76 29 41 997.8 - 10.6
29/05:13am 12.7 - - - - NW 54 70 29 38 997.9 - 10.4
29/05:03am 12.0 - - - - NW 54 72 29 39 998.4 - 10.2
29/05:00am 12.3 - - - - NW 57 74 31 40 998.5 998.6 10.0
29/04:30am 13.1 - - - - NW 65 89 35 48 998.6 - 8.6
29/04:00am 13.0 - - - - NW 63 82 34 44 999.3 999.4 8.4
29/03:30am 12.8 - - - - NW 65 83 35 45 999.7 - 8.2
29/03:00am 12.6 - - - - NW 54 80 29 43 1000.3 1000.4 7.0
29/02:30am 12.8 - - - - NW 48 67 26 36 1000.7 - 6.8
29/02:00am 12.9 - - - - NW 52 74 28 40 1001.5 1001.6 6.8
29/01:32am 12.8 - - - - NW 46 65 25 35 1002.0 - 6.8
29/01:30am 12.8 - - - - NW 48 65 26 35 1002.0 - 6.8
29/01:11am 12.3 - - - - NNW 52 70 28 38 1002.3 - 6.8
29/01:00am 12.6 - - - - NNW 52 65 28 35 1002.3 1002.4 6.8
29/12:45am 12.6 - - - - NW 46 65 25 35 1002.9 - 6.8
29/12:41am 12.4 - - - - NW 46 65 25 35 1002.9 - 6.8
29/12:35am 12.4 - - - - NNW 46 59 25 32 1003.0 - 6.8
29/12:30am 12.5 - - - - NNW 50 65 27 35 1003.2 - 6.8
29/12:00am 12.9 - - - - NW 52 72 28 39 1003.6 1003.7 6.6
 
Date/Time
EST
Temp
°C
App
Temp
°C
Dew
Point
Rel
Hum
%
Delta-T
°C
Wind Press
QNH
hPa
Press
MSL
hPa
Rain
since 9 am
mm
Dir
 
Spd
km/h
Gust
km/h
Spd
kts
Gust
kts
28/11:31pm 12.5 - - - - NW 46 65 25 35 1004.1 - 6.6
28/11:30pm 12.6 - - - - NW 46 63 25 34 1004.1 - 6.6
28/11:23pm 12.5 - - - - NW 48 67 26 36 1004.1 - 6.6
28/11:15pm 12.3 - - - - WNW 46 67 25 36 1004.3 - 6.6
28/11:12pm 12.2 - - - - WNW 43 57 23 31 1004.3 - 6.6
28/11:00pm 11.6 - - - - NW 46 72 25 39 1004.7 1004.8 3.8
28/10:30pm 13.6 - - - - WNW 50 69 27 37 1004.8 - 1.0
28/10:10pm 13.4 - - - - WNW 44 65 24 35 1004.7 - 1.0
28/10:00pm 13.4 - - - - WNW 44 59 24 32 1004.9 1005.0 1.0
28/09:30pm 13.3 - - - - WNW 56 70 30 38 1004.7 - 1.0
28/09:02pm 13.0 - - - - WNW 54 72 29 39 1005.0 - 1.0
28/09:00pm 13.0 - - - - WNW 52 69 28 37 1005.0 1005.1 1.0
28/08:30pm 13.0 - - - - WNW 44 65 24 35 1005.2 - 1.0
28/08:26pm 12.9 - - - - WNW 43 65 23 35 1005.3 - 1.0
28/08:00pm 12.7 - - - - WNW 39 50 21 27 1005.4 1005.5 1.0
28/07:30pm 12.7 - - - - WNW 43 54 23 29 1005.6 - 1.0
28/07:05pm 12.5 - - - - WNW 35 56 19 30 1005.6 - 1.0
28/07:00pm 12.7 - - - - WNW 33 46 18 25 1005.9 1005.9 1.0
28/06:30pm 12.0 - - - - WNW 41 54 22 29 1005.9 - 1.0
28/06:00pm 11.1 - - - - WNW 39 48 21 26 1006.0 1006.0 1.0
28/05:31pm 11.0 - - - - WNW 52 74 28 40 1006.1 - 0.8
28/05:30pm 11.9 - - - - WNW 50 67 27 36 1006.0 - 0.8
28/05:03pm 11.9 - - - - NW 44 63 24 34 1005.8 - 0.2
28/05:00pm 12.0 - - - - NW 48 65 26 35 1005.9 1005.9 0.2
28/04:30pm 12.9 - - - - NW 50 69 27 37 1005.9 - 0.0
28/04:01pm 13.2 - - - - NW 46 65 25 35 1006.1 - 0.0
28/04:00pm 13.1 - - - - NW 44 57 24 31 1006.1 1006.1 0.0
28/03:30pm 13.3 - - - - NW 39 50 21 27 1006.4 - 0.0
28/03:00pm 13.8 - - - - NW 37 50 20 27 1006.5 1006.5 0.0
28/02:30pm 14.5 - - - - NW 39 52 21 28 1006.6 - 0.0
28/02:00pm 14.2 - - - - NW 41 52 22 28 1007.1 1007.1 0.0
28/01:30pm 14.1 - - - - WNW 35 48 19 26 1007.6 - 0.0
28/01:00pm 14.3 - - - - WNW 35 48 19 26 1008.2 1008.3 0.0
28/12:30pm 14.1 - - - - WNW 37 50 20 27 1008.6 - 0.0
28/12:00pm 14.1 - - - - WNW 41 54 22 29 1008.8 1008.9 0.0
28/11:58am 14.1 - - - - WNW 41 59 22 32 1008.8 - 0.0
28/11:30am 14.2 - - - - WNW 39 50 21 27 1009.2 - 0.0
28/11:00am 13.8 - - - - WNW 43 56 23 30 1009.4 1009.5 0.0
28/10:30am 14.1 - - - - WNW 39 48 21 26 1009.5 - 0.0
28/10:00am 13.9 - - - - WNW 37 46 20 25 1009.5 1009.6 0.0
28/09:30am 13.6 - - - - NW 32 41 17 22 1009.5 - 0.0
28/09:00am 13.5 - - - - NW 33 39 18 21 1009.6 1009.7 1.0
28/08:30am 13.1 - - - - WNW 28 37 15 20 1009.7 - 1.0
28/08:00am 13.3 - - - - WNW 35 46 19 25 1009.7 1009.8 1.0
28/07:30am 13.0 - - - - WNW 33 43 18 23 1009.9 - 1.0
28/07:00am 12.9 - - - - WNW 39 50 21 27 1009.9 1010.0 1.0
28/06:43am 12.6 - - - - WNW 43 54 23 29 1009.8 - 1.0
28/06:30am 13.0 - - - - WNW 43 59 23 32 1009.7 - 0.8
28/06:28am 13.3 - - - - WNW 41 59 22 32 1009.7 - 0.8
28/06:07am 12.8 - - - - WNW 44 63 24 34 1009.5 - 0.0
28/06:00am 13.1 - - - - WNW 44 61 24 33 1009.6 1009.7 0.0
28/05:50am 13.4 - - - - NW 46 65 25 35 1009.6 - 0.0
28/05:30am 13.5 - - - - NW 50 63 27 34 1009.6 - 0.0
28/05:00am 13.5 - - - - NW 46 59 25 32 1009.8 1009.9 0.0
28/04:30am 13.4 - - - - NW 43 54 23 29 1010.0 - 0.0
28/04:00am 13.4 - - - - NW 43 56 23 30 1010.3 1010.4 0.0
28/03:46am 13.3 - - - - NW 39 57 21 31 1010.4 - 0.0
28/03:30am 13.3 - - - - NW 39 54 21 29 1010.6 - 0.0
28/03:00am 13.4 - - - - NW 43 61 23 33 1010.9 1011.0 0.0
28/02:34am 13.4 - - - - NW 44 63 24 34 1011.2 - 0.0
28/02:30am 13.4 - - - - NW 46 63 25 34 1011.2 - 0.0
28/02:04am 13.3 - - - - NW 44 63 24 34 1011.4 - 0.0
28/02:00am 13.4 - - - - NW 44 57 24 31 1011.4 1011.5 0.0
28/01:41am 13.5 - - - - NW 46 65 25 35 1011.6 - 0.0
28/01:30am 13.4 - - - - NW 44 59 24 32 1011.6 - 0.0
28/01:00am 13.5 - - - - NW 43 61 23 33 1011.9 1012.0 0.0
28/12:30am 13.4 - - - - NW 43 57 23 31 1012.2 - 0.0
28/12:11am 13.4 - - - - NW 41 61 22 33 1012.5 - 0.0
28/12:00am 13.3 - - - - NW 39 50 21 27 1012.6 1012.7 0.0
 
Date/Time
EST
Temp
°C
App
Temp
°C
Dew
Point
Rel
Hum
%
Delta-T
°C
Wind Press
QNH
hPa
Press
MSL
hPa
Rain
since 9 am
mm
Dir
 
Spd
km/h
Gust
km/h
Spd
kts
Gust
kts
27/11:42pm 13.3 - - - - NNW 41 59 22 32 1012.8 - 0.0
27/11:30pm 13.2 - - - - NNW 44 56 24 30 1012.9 - 0.0
27/11:00pm 13.2 - - - - NNW 43 57 23 31 1013.3 1013.4 0.0
27/10:30pm 13.2 - - - - NNW 43 59 23 32 1013.7 - 0.0
27/10:00pm 13.3 - - - - NNW 43 54 23 29 1014.0 1014.1 0.0
27/09:30pm 13.2 - - - - NNW 43 52 23 28 1014.1 - 0.0
27/09:00pm 13.1 - - - - NNW 43 52 23 28 1014.1 1014.2 0.0
27/08:30pm 13.1 - - - - NNW 41 50 22 27 1014.4 - 0.0
27/08:06pm 13.2 - - - - NNW 39 57 21 31 1014.8 - 0.0
27/08:00pm 13.2 - - - - NNW 41 56 22 30 1014.9 1015.0 0.0
27/07:30pm 13.2 - - - - NW 37 52 20 28 1015.3 - 0.0

Other Formats:

Comma delimited format used in spreadsheet applications
http://www.bom.gov.au/fwo/IDT60801/IDT60801.95954.axf

JavaScript Object Notation format (JSON) in row-major order
http://www.bom.gov.au/fwo/IDT60801/IDT60801.95954.json